Time;durP1;ratioP1;P1;durP2;ratioP2;P2;SDS_P1;SDS_P2;PMS_P1;PMS_P2;Temp;Humidity;BMP_temperature;BMP_pressure;BME280_temperature;BME280_humidity;BME280_pressure;Samples;Min_cycle;Max_cycle;Signal;HPM_P1;HPM_P2
2022/03/01 00:00:23;;;;;;;1.40;1.33;;;1.90;96.30;;;;;;5116005;28;20461;-68
2022/03/01 00:02:50;;;;;;;1.47;1.30;;;1.90;96.10;;;;;;5115890;28;20490;-67
2022/03/01 00:05:19;;;;;;;1.20;1.00;;;2.10;95.60;;;;;;5115836;28;20541;-68
2022/03/01 00:07:46;;;;;;;1.20;1.10;;;2.10;95.90;;;;;;5115658;28;21180;-68
2022/03/01 00:10:14;;;;;;;1.20;1.10;;;2.10;95.50;;;;;;5115795;28;20875;-68
2022/03/01 00:12:41;;;;;;;1.70;1.60;;;2.00;95.90;;;;;;5114591;28;20847;-68
2022/03/01 00:15:09;;;;;;;1.20;1.10;;;1.90;96.80;;;;;;5115870;28;20831;-68
2022/03/01 00:17:36;;;;;;;1.30;1.20;;;1.90;96.00;;;;;;5115792;28;20490;-68
2022/03/01 00:20:04;;;;;;;2.33;1.93;;;2.00;96.20;;;;;;5115802;28;20989;-68
2022/03/01 00:22:33;;;;;;;2.37;2.20;;;1.90;95.90;;;;;;5115801;28;20462;-68
2022/03/01 00:25:01;;;;;;;1.67;1.33;;;1.90;95.90;;;;;;5115870;28;20527;-68
2022/03/01 00:27:28;;;;;;;1.30;1.20;;;2.00;95.80;;;;;;5115149;28;20479;-68
2022/03/01 00:29:55;;;;;;;1.70;1.40;;;2.00;95.50;;;;;;5115574;28;20512;-68
2022/03/01 00:32:24;;;;;;;1.93;1.40;;;2.00;95.60;;;;;;5115214;28;20847;-68
2022/03/01 00:34:51;;;;;;;1.63;1.60;;;2.00;95.60;;;;;;5115318;28;20461;-68
2022/03/01 00:37:18;;;;;;;2.07;1.63;;;2.00;95.40;;;;;;5115256;28;20531;-68
2022/03/01 00:39:47;;;;;;;1.67;1.30;;;1.90;95.50;;;;;;5115123;28;20992;-68
2022/03/01 00:42:14;;;;;;;2.27;1.80;;;2.00;95.40;;;;;;5115289;28;20874;-68
2022/03/01 00:44:41;;;;;;;1.90;1.80;;;2.00;95.90;;;;;;5115280;28;20538;-67
2022/03/01 00:47:08;;;;;;;1.23;1.20;;;2.00;95.90;;;;;;5115058;27;20521;-68
2022/03/01 00:49:35;;;;;;;1.37;1.30;;;1.80;96.40;;;;;;5115065;28;20482;-68
2022/03/01 00:52:02;;;;;;;1.30;1.27;;;1.70;96.50;;;;;;5115063;28;20493;-68
2022/03/01 00:54:30;;;;;;;2.33;1.83;;;1.70;97.10;;;;;;5115026;28;20512;-68
2022/03/01 00:56:58;;;;;;;2.37;2.23;;;1.70;97.10;;;;;;5114781;28;20490;-68
2022/03/01 00:59:25;;;;;;;1.43;1.40;;;1.60;97.40;;;;;;5115182;28;20508;-68
2022/03/01 01:01:52;;;;;;;2.37;1.70;;;1.60;98.00;;;;;;5114867;28;20932;-68
2022/03/01 01:04:20;;;;;;;2.20;2.00;;;1.60;98.00;;;;;;5115134;28;20821;-67
2022/03/01 01:06:47;;;;;;;2.90;1.93;;;1.50;98.00;;;;;;5114595;27;20478;-68
2022/03/01 01:09:14;;;;;;;1.40;1.20;;;1.20;98.00;;;;;;5114672;28;21003;-67
2022/03/01 01:11:41;;;;;;;1.77;1.40;;;1.10;98.00;;;;;;5114711;28;20499;-68
2022/03/01 01:14:10;;;;;;;4.13;2.10;;;1.00;98.00;;;;;;5114598;28;20921;-67
2022/03/01 01:16:38;;;;;;;1.43;1.43;;;0.80;98.00;;;;;;5114584;28;20494;-67
2022/03/01 01:19:05;;;;;;;1.40;1.30;;;0.80;98.00;;;;;;5114365;28;21043;-67
2022/03/01 01:24:13;;;;;;;2.33;1.70;;;0.60;98.00;;;;;;5114123;28;20521;-67
2022/03/01 01:26:40;;;;;;;1.30;1.20;;;0.80;98.00;;;;;;5114168;28;20577;-67
2022/03/01 01:29:07;;;;;;;1.80;1.50;;;0.70;98.00;;;;;;5114415;28;20513;-67
2022/03/01 01:31:35;;;;;;;1.30;1.20;;;0.60;98.00;;;;;;5114253;28;20545;-67
2022/03/01 01:34:02;;;;;;;1.53;1.50;;;0.60;98.00;;;;;;5114538;27;20487;-68
2022/03/01 01:36:30;;;;;;;1.50;1.47;;;0.60;98.00;;;;;;5114126;28;20490;-67
2022/03/01 01:38:58;;;;;;;2.30;1.93;;;0.60;98.00;;;;;;5114335;28;20490;-68
2022/03/01 01:41:24;;;;;;;3.73;1.50;;;0.80;98.00;;;;;;5114166;28;20493;-67
2022/03/01 01:43:53;;;;;;;1.30;1.30;;;0.70;98.00;;;;;;5114251;28;20541;-69
2022/03/01 01:46:20;;;;;;;1.60;1.57;;;0.70;98.00;;;;;;5113987;27;20573;-67
2022/03/01 01:48:49;;;;;;;1.30;1.10;;;0.80;98.00;;;;;;5114145;28;20534;-67
2022/03/01 01:51:18;;;;;;;1.40;1.30;;;0.90;98.00;;;;;;5112860;28;21119;-67
2022/03/01 01:53:45;;;;;;;2.50;1.40;;;0.80;98.00;;;;;;5114059;28;20459;-67
2022/03/01 01:56:13;;;;;;;1.20;1.10;;;0.80;98.00;;;;;;5113706;28;20503;-67
2022/03/01 01:58:40;;;;;;;1.37;1.33;;;0.80;98.00;;;;;;5113679;28;20557;-67
2022/03/01 02:01:07;;;;;;;1.30;1.20;;;0.90;98.00;;;;;;5113527;28;20526;-67
2022/03/01 02:03:36;;;;;;;1.20;1.00;;;0.90;98.00;;;;;;5113571;28;20493;-68
2022/03/01 02:06:05;;;;;;;1.60;1.50;;;0.90;98.00;;;;;;5113292;28;20455;-67
2022/03/01 02:08:34;;;;;;;1.20;1.20;;;0.80;98.00;;;;;;5113517;28;20482;-67
2022/03/01 02:11:02;;;;;;;1.73;1.47;;;0.80;98.00;;;;;;5113063;28;20506;-67
2022/03/01 02:13:29;;;;;;;1.20;1.20;;;0.80;98.00;;;;;;5112897;28;20453;-67
2022/03/01 02:15:57;;;;;;;1.50;1.33;;;0.90;98.00;;;;;;5113304;28;20540;-67
2022/03/01 02:18:24;;;;;;;4.03;2.90;;;0.90;98.00;;;;;;5113341;28;20454;-67
2022/03/01 02:20:53;;;;;;;1.40;1.40;;;0.80;98.00;;;;;;5113237;28;20550;-67
2022/03/01 02:23:20;;;;;;;1.60;1.50;;;0.70;98.00;;;;;;5113136;28;20466;-67
2022/03/01 02:25:47;;;;;;;1.53;1.43;;;0.70;98.00;;;;;;5113094;28;20483;-67
2022/03/01 02:28:14;;;;;;;1.27;1.23;;;0.70;98.00;;;;;;5113179;28;20543;-67
2022/03/01 02:30:46;;;;;;;1.20;1.10;;;0.60;98.00;;;;;;5113082;28;20458;-67
2022/03/01 02:33:13;;;;;;;1.30;1.03;;;0.60;98.00;;;;;;5112048;28;21013;-67
2022/03/01 02:35:42;;;;;;;1.63;1.57;;;0.60;98.00;;;;;;5112837;28;20514;-67
2022/03/01 02:38:10;;;;;;;1.43;1.40;;;0.60;98.00;;;;;;5112251;28;20462;-67
2022/03/01 02:40:37;;;;;;;1.93;1.80;;;0.60;98.00;;;;;;5112174;28;20508;-67
2022/03/01 02:43:05;;;;;;;1.20;1.03;;;0.60;98.00;;;;;;5112762;28;20451;-67
2022/03/01 02:45:32;;;;;;;1.87;1.57;;;0.50;98.00;;;;;;5113230;28;20507;-67
2022/03/01 02:47:59;;;;;;;1.40;1.20;;;0.50;98.00;;;;;;5112850;28;20568;-67
2022/03/01 02:50:26;;;;;;;1.70;1.63;;;0.50;98.00;;;;;;5112643;28;20486;-67
2022/03/01 02:52:53;;;;;;;1.40;1.20;;;0.60;98.00;;;;;;5112612;28;20494;-67
2022/03/01 02:55:23;;;;;;;4.60;3.50;;;0.60;98.00;;;;;;5112593;28;20497;-67
2022/03/01 02:57:49;;;;;;;2.63;2.10;;;0.60;98.00;;;;;;5112386;28;20458;-67
2022/03/01 03:00:17;;;;;;;1.73;1.63;;;0.50;98.00;;;;;;5112533;28;20538;-67
2022/03/01 03:02:44;;;;;;;1.63;1.40;;;0.60;98.00;;;;;;5112365;28;20988;-67
2022/03/01 03:05:12;;;;;;;1.20;1.17;;;0.40;98.00;;;;;;5112474;28;21049;-67
2022/03/01 03:07:40;;;;;;;5.30;2.07;;;0.30;98.00;;;;;;5112003;28;20521;-67
2022/03/01 03:10:08;;;;;;;1.77;1.67;;;0.20;98.00;;;;;;5112532;28;20891;-67
2022/03/01 03:12:36;;;;;;;1.97;1.30;;;0.10;98.00;;;;;;5112315;28;20461;-67
2022/03/01 03:15:04;;;;;;;1.30;1.20;;;0.00;98.00;;;;;;5112472;28;20470;-67
2022/03/01 03:17:31;;;;;;;1.63;1.53;;;-0.20;98.00;;;;;;5112204;28;20450;-67
2022/03/01 03:19:58;;;;;;;1.50;1.47;;;-0.10;98.00;;;;;;5112090;28;20458;-67
2022/03/01 03:22:25;;;;;;;1.20;1.00;;;-0.20;98.00;;;;;;5112185;28;20457;-67
2022/03/01 03:24:52;;;;;;;1.20;1.07;;;-0.30;98.00;;;;;;5111384;28;20458;-67
2022/03/01 03:27:19;;;;;;;2.43;2.23;;;-0.20;98.00;;;;;;5112149;28;20481;-67
2022/03/01 03:29:48;;;;;;;1.90;1.80;;;-0.20;98.00;;;;;;5111118;28;20972;-67
2022/03/01 03:32:15;;;;;;;1.93;1.83;;;-0.40;98.00;;;;;;5112295;28;20458;-67
2022/03/01 03:34:42;;;;;;;1.30;1.23;;;-0.50;98.00;;;;;;5112345;28;20489;-67
2022/03/01 03:37:09;;;;;;;2.27;2.03;;;-0.60;98.00;;;;;;5110974;28;20447;-67
2022/03/01 03:39:36;;;;;;;4.70;2.63;;;-0.60;98.00;;;;;;5112490;28;21115;-67
2022/03/01 03:42:03;;;;;;;1.20;1.17;;;-0.60;98.00;;;;;;5112411;28;20944;-67
2022/03/01 03:44:30;;;;;;;1.90;1.80;;;-0.60;98.00;;;;;;5112198;28;20936;-67
2022/03/01 03:46:59;;;;;;;1.50;1.20;;;-0.70;98.00;;;;;;5110939;28;20516;-67
2022/03/01 03:49:26;;;;;;;1.17;1.00;;;-0.70;98.00;;;;;;5111897;28;20450;-67
2022/03/01 03:51:55;;;;;;;1.50;1.40;;;-0.70;98.00;;;;;;5111778;28;20497;-67
2022/03/01 03:54:22;;;;;;;1.80;1.30;;;-0.70;98.00;;;;;;5111904;28;20448;-67
2022/03/01 03:56:49;;;;;;;3.00;2.27;;;-0.60;98.00;;;;;;5111678;28;20505;-67
2022/03/01 03:59:16;;;;;;;1.30;1.30;;;-0.60;98.00;;;;;;5111677;28;20454;-67
2022/03/01 04:01:43;;;;;;;1.30;1.27;;;-0.60;98.00;;;;;;5111787;28;20575;-67
2022/03/01 04:04:11;;;;;;;1.60;1.30;;;-0.60;98.00;;;;;;5111778;28;20555;-67
2022/03/01 04:06:39;;;;;;;1.20;1.10;;;-0.70;98.00;;;;;;5111649;28;20449;-67
2022/03/01 04:09:07;;;;;;;1.67;1.27;;;-0.70;98.00;;;;;;5110621;28;20489;-67
2022/03/01 04:11:34;;;;;;;2.27;1.70;;;-0.80;98.00;;;;;;5111725;28;20879;-67
2022/03/01 04:14:01;;;;;;;1.20;1.10;;;-0.90;98.00;;;;;;5111810;28;20804;-67
2022/03/01 04:16:28;;;;;;;1.67;1.57;;;-0.90;98.00;;;;;;5111686;28;20460;-67
2022/03/01 04:18:56;;;;;;;1.20;1.00;;;-1.00;98.00;;;;;;5111766;28;20459;-67
2022/03/01 04:21:24;;;;;;;4.80;2.37;;;-1.10;98.00;;;;;;5111616;28;20499;-67
2022/03/01 04:23:51;;;;;;;1.20;1.10;;;-1.10;98.00;;;;;;5111763;28;20495;-67
2022/03/01 04:26:18;;;;;;;2.17;2.05;;;-1.10;98.00;;;;;;5111715;28;20962;-67
2022/03/01 04:28:45;;;;;;;1.30;1.30;;;-1.10;98.00;;;;;;5111733;28;20222;-67
2022/03/01 04:31:13;;;;;;;1.27;1.20;;;-1.00;98.00;;;;;;5110460;28;20539;-67
2022/03/01 04:33:41;;;;;;;2.13;1.97;;;-1.00;98.00;;;;;;5111845;28;20460;-67
2022/03/01 04:36:08;;;;;;;1.30;1.20;;;-1.00;98.00;;;;;;5111881;28;20460;-67
2022/03/01 04:38:37;;;;;;;1.50;1.40;;;-1.10;98.00;;;;;;5115277;28;20235;-67
2022/03/01 04:41:04;;;;;;;1.20;1.10;;;-1.10;98.00;;;;;;5115084;28;20461;-67
2022/03/01 04:43:32;;;;;;;1.50;1.50;;;-1.10;98.00;;;;;;5114020;28;21040;-67
2022/03/01 04:45:59;;;;;;;2.63;2.17;;;-1.10;98.00;;;;;;5115040;28;20509;-67
2022/03/01 04:48:27;;;;;;;1.33;1.23;;;-1.10;98.00;;;;;;5115020;28;21190;-67
2022/03/01 04:50:54;;;;;;;1.90;1.38;;;-1.00;98.00;;;;;;5114804;28;20485;-67
2022/03/01 04:53:21;;;;;;;1.20;1.10;;;-0.70;98.00;;;;;;5115121;28;20239;-67
2022/03/01 04:55:51;;;;;;;1.20;1.10;;;-0.70;98.00;;;;;;5114923;28;21184;-67
2022/03/01 04:58:18;;;;;;;1.30;1.20;;;-0.70;98.00;;;;;;5114917;28;20469;-67
2022/03/01 05:00:46;;;;;;;2.90;1.83;;;-0.80;98.00;;;;;;5114984;28;21000;-67
2022/03/01 05:03:13;;;;;;;1.20;1.10;;;-0.90;98.00;;;;;;5096942;28;20455;-67
2022/03/01 05:05:40;;;;;;;1.30;1.30;;;-0.80;98.00;;;;;;5114776;28;20527;-67
2022/03/01 05:08:08;;;;;;;2.38;2.17;;;-0.90;98.00;;;;;;5114807;28;20544;-67
2022/03/01 05:10:35;;;;;;;1.80;1.80;;;-1.10;98.00;;;;;;5114898;28;20605;-67
2022/03/01 05:13:03;;;;;;;2.43;1.67;;;-1.30;98.00;;;;;;5113413;28;20456;-67
2022/03/01 05:15:31;;;;;;;1.20;1.00;;;-1.30;98.00;;;;;;5114699;28;20466;-67
2022/03/01 05:18:00;;;;;;;1.30;1.17;;;-1.30;98.00;;;;;;5114688;27;21036;-67
2022/03/01 05:20:28;;;;;;;4.17;2.50;;;-1.40;98.00;;;;;;5114863;28;20467;-67
2022/03/01 05:22:55;;;;;;;1.63;1.57;;;-1.60;98.00;;;;;;5114708;28;20448;-67
2022/03/01 05:25:23;;;;;;;1.20;1.10;;;-1.50;98.00;;;;;;5114467;28;20460;-67
2022/03/01 05:27:52;;;;;;;1.77;1.67;;;-1.50;98.00;;;;;;5114221;28;20768;-67
2022/03/01 05:30:21;;;;;;;1.77;1.67;;;-1.40;98.00;;;;;;5114154;27;20891;-67
2022/03/01 05:32:50;;;;;;;1.85;1.85;;;-1.50;98.00;;;;;;5114098;28;20584;-67
2022/03/01 05:35:19;;;;;;;1.87;1.77;;;-1.50;98.00;;;;;;5114183;28;20289;-67
2022/03/01 05:37:49;;;;;;;1.15;1.10;;;-1.40;98.00;;;;;;5113893;28;20476;-67
2022/03/01 05:40:17;;;;;;;3.17;2.45;;;-1.60;98.00;;;;;;5114184;28;20569;-67
2022/03/01 05:42:45;;;;;;;2.13;2.00;;;-1.70;98.00;;;;;;5113967;27;20306;-67
2022/03/01 05:45:13;;;;;;;2.35;2.15;;;-1.70;98.00;;;;;;5114150;28;20234;-67
2022/03/01 05:47:43;;;;;;;3.10;2.10;;;-1.70;98.00;;;;;;5112960;28;20581;-67
2022/03/01 05:50:11;;;;;;;2.15;1.65;;;-1.80;98.00;;;;;;5113980;28;20801;-67
2022/03/01 05:52:39;;;;;;;1.47;1.37;;;-1.70;98.00;;;;;;5113896;28;20735;-67
2022/03/01 05:55:08;;;;;;;1.95;1.40;;;-1.80;98.00;;;;;;5113903;28;20449;-67
2022/03/01 05:57:36;;;;;;;1.20;1.00;;;-1.80;98.00;;;;;;5113643;28;20221;-67
2022/03/01 06:00:06;;;;;;;1.53;1.43;;;-1.70;98.00;;;;;;5114024;28;20452;-67
2022/03/01 06:02:33;;;;;;;2.03;1.60;;;-1.70;98.00;;;;;;5113758;28;20456;-67
2022/03/01 06:05:03;;;;;;;1.83;1.50;;;-1.50;98.00;;;;;;5113780;28;20981;-67
2022/03/01 06:07:30;;;;;;;1.60;1.40;;;-1.30;98.00;;;;;;5113595;28;20490;-67
2022/03/01 06:09:57;;;;;;;1.83;1.50;;;-1.40;98.00;;;;;;5113778;28;20491;-67
2022/03/01 06:12:24;;;;;;;6.00;2.70;;;-1.50;98.00;;;;;;5113614;28;20492;-67
2022/03/01 06:14:51;;;;;;;1.20;1.10;;;-1.30;98.00;;;;;;5113475;28;20495;-67
2022/03/01 06:17:18;;;;;;;1.30;1.27;;;-1.60;98.00;;;;;;5113267;28;20250;-67
2022/03/01 06:19:45;;;;;;;1.83;1.50;;;-1.70;98.00;;;;;;5113251;28;20491;-67
2022/03/01 06:22:15;;;;;;;1.95;1.48;;;-1.80;98.00;;;;;;5113217;28;20202;-67
2022/03/01 06:24:43;;;;;;;2.67;1.75;;;-1.70;98.00;;;;;;5111638;28;20260;-67
2022/03/01 06:27:18;;;;;;;1.30;1.15;;;-1.70;98.00;;;;;;5113005;28;20249;-67
2022/03/01 06:29:45;;;;;;;1.55;1.38;;;-1.60;98.00;;;;;;5112975;28;20742;-67
2022/03/01 06:32:12;;;;;;;1.80;1.70;;;-1.70;98.00;;;;;;5112902;28;20293;-67
2022/03/01 06:34:39;;;;;;;3.37;1.67;;;-1.80;98.00;;;;;;5113012;28;20830;-67
2022/03/01 06:37:12;;;;;;;3.35;2.25;;;-1.80;98.00;;;;;;5112996;28;20472;-67
2022/03/01 06:39:41;;;;;;;1.30;1.10;;;-1.80;98.00;;;;;;5112959;28;20209;-67
2022/03/01 06:42:09;;;;;;;2.00;1.90;;;-1.80;98.00;;;;;;5112769;28;20262;-67
2022/03/01 06:44:36;;;;;;;1.55;1.45;;;-1.70;98.00;;;;;;5113002;28;20457;-67
2022/03/01 06:47:04;;;;;;;3.10;1.97;;;-1.70;98.00;;;;;;5112701;28;20249;-67
2022/03/01 06:49:32;;;;;;;1.48;1.45;;;-1.60;98.00;;;;;;5112958;28;20527;-67
2022/03/01 06:51:59;;;;;;;1.20;1.00;;;-1.40;98.00;;;;;;5112856;28;20209;-67
2022/03/01 06:54:26;;;;;;;1.20;1.10;;;-1.20;98.00;;;;;;5112887;28;20205;-67
2022/03/01 06:56:55;;;;;;;1.40;1.40;;;-1.00;98.00;;;;;;5112160;28;20203;-67
2022/03/01 06:59:26;;;;;;;1.47;1.40;;;-0.90;98.00;;;;;;5112884;28;20264;-67
2022/03/01 07:01:54;;;;;;;2.20;1.50;;;-0.70;98.00;;;;;;5111471;28;20874;-67
2022/03/01 07:04:21;;;;;;;5.00;2.47;;;-0.50;98.00;;;;;;5112861;28;20235;-67
2022/03/01 07:06:48;;;;;;;1.20;1.13;;;-0.50;98.00;;;;;;5112039;27;20920;-67
2022/03/01 07:09:15;;;;;;;1.77;1.37;;;-0.40;98.00;;;;;;5112270;28;20576;-67
2022/03/01 07:11:42;;;;;;;1.50;1.30;;;-0.40;98.00;;;;;;5112238;28;20970;-67
2022/03/01 07:14:11;;;;;;;1.37;1.33;;;-0.20;98.00;;;;;;5112284;28;20461;-67
2022/03/01 07:16:38;;;;;;;1.20;1.20;;;-0.10;98.00;;;;;;5112367;28;20510;-67
2022/03/01 07:19:05;;;;;;;2.70;2.13;;;-0.10;98.00;;;;;;5110964;28;20947;-67
2022/03/01 07:21:32;;;;;;;1.30;1.30;;;0.10;98.00;;;;;;5112255;28;20570;-67
2022/03/01 07:23:59;;;;;;;2.13;1.93;;;0.20;98.00;;;;;;5112271;28;20534;-67
2022/03/01 07:26:28;;;;;;;1.40;1.20;;;0.30;98.00;;;;;;5112289;28;20492;-67
2022/03/01 07:28:55;;;;;;;1.73;1.60;;;0.30;97.90;;;;;;5112098;28;20530;-67
2022/03/01 07:31:24;;;;;;;1.80;1.77;;;0.30;98.00;;;;;;5112148;28;20456;-67
2022/03/01 07:33:52;;;;;;;1.50;1.40;;;0.20;97.90;;;;;;5112015;28;20549;-67
2022/03/01 07:36:22;;;;;;;2.10;1.83;;;0.20;98.00;;;;;;5112028;28;20515;-67
2022/03/01 07:38:49;;;;;;;1.50;1.20;;;0.20;98.00;;;;;;5112040;28;20465;-67
2022/03/01 07:41:16;;;;;;;1.20;1.13;;;0.20;98.00;;;;;;5112015;28;20494;-67
2022/03/01 07:43:44;;;;;;;2.23;1.97;;;0.30;98.00;;;;;;5112119;28;20527;-67
2022/03/01 07:46:13;;;;;;;3.00;2.80;;;0.40;98.00;;;;;;5111111;28;20491;-67
2022/03/01 07:48:43;;;;;;;1.80;1.70;;;0.60;96.90;;;;;;5111215;28;20550;-67
2022/03/01 07:51:10;;;;;;;1.17;1.17;;;0.70;96.60;;;;;;5111399;28;20533;-66
2022/03/01 07:53:38;;;;;;;1.20;1.10;;;0.60;96.90;;;;;;5112134;28;20494;-66
2022/03/01 07:56:06;;;;;;;2.60;1.93;;;0.80;97.00;;;;;;5112171;28;20532;-67
2022/03/01 07:58:34;;;;;;;3.60;2.37;;;0.70;96.90;;;;;;5111898;28;20892;-67
2022/03/01 08:01:01;;;;;;;1.60;1.53;;;0.80;97.10;;;;;;5111273;28;20511;-67
2022/03/01 08:03:36;;;;;;;2.33;2.20;;;0.80;96.80;;;;;;5111948;28;20555;-67
2022/03/01 08:06:05;;;;;;;1.30;1.13;;;0.90;96.70;;;;;;5111621;28;20551;-67
2022/03/01 08:08:33;;;;;;;1.93;1.40;;;0.80;97.70;;;;;;5111774;28;20599;-67
2022/03/01 08:11:00;;;;;;;1.43;1.40;;;0.90;97.50;;;;;;5111988;28;20450;-67
2022/03/01 08:13:29;;;;;;;1.60;1.50;;;1.10;96.20;;;;;;5115789;28;20487;-67
2022/03/01 08:15:56;;;;;;;1.40;1.20;;;1.20;95.70;;;;;;5115623;27;20848;-67
2022/03/01 08:18:23;;;;;;;1.33;1.27;;;1.30;94.90;;;;;;5115701;28;20485;-67
2022/03/01 08:20:50;;;;;;;4.30;2.43;;;1.40;95.10;;;;;;5115221;28;20493;-67
2022/03/01 08:23:20;;;;;;;1.97;1.87;;;1.50;95.30;;;;;;5115519;28;20454;-67
2022/03/01 08:25:47;;;;;;;2.63;1.20;;;1.60;95.20;;;;;;5115449;27;20454;-67
2022/03/01 08:28:14;;;;;;;1.50;1.47;;;1.70;94.30;;;;;;5115199;28;20539;-67
2022/03/01 08:30:41;;;;;;;1.40;1.37;;;1.80;94.20;;;;;;5114973;28;20504;-68
2022/03/01 08:33:08;;;;;;;1.10;1.00;;;1.90;94.60;;;;;;5113960;28;20848;-67
2022/03/01 08:35:43;;;;;;;1.20;1.20;;;2.00;93.60;;;;;;5115487;28;20833;-68
2022/03/01 08:38:10;;;;;;;4.40;1.50;;;2.10;94.00;;;;;;5110995;28;20497;-68
2022/03/01 08:40:39;;;;;;;1.20;1.10;;;2.20;92.80;;;;;;5099662;28;20506;-67
2022/03/01 08:43:07;;;;;;;3.67;1.90;;;2.30;93.30;;;;;;5103203;28;20462;-68
2022/03/01 08:45:34;;;;;;;2.40;1.63;;;2.40;92.70;;;;;;5104338;28;21284;-67
2022/03/01 08:48:03;;;;;;;2.40;2.20;;;2.50;92.60;;;;;;5109809;28;20570;-67
2022/03/01 08:50:31;;;;;;;1.23;1.10;;;2.60;92.30;;;;;;5098213;28;20550;-67
2022/03/01 08:52:59;;;;;;;1.43;1.33;;;2.70;92.40;;;;;;5106198;28;20571;-67
2022/03/01 08:55:26;;;;;;;1.50;1.30;;;2.80;91.80;;;;;;5102741;28;20510;-68
2022/03/01 08:57:55;;;;;;;1.53;1.50;;;2.80;91.20;;;;;;5094802;28;20528;-67
2022/03/01 09:00:22;;;;;;;2.70;1.40;;;2.90;91.50;;;;;;5109462;28;20474;-66
2022/03/01 09:02:49;;;;;;;3.30;1.73;;;3.00;91.20;;;;;;5101304;28;20462;-67
2022/03/01 09:05:16;;;;;;;3.63;1.40;;;3.20;90.70;;;;;;5101282;28;20804;-67
2022/03/01 09:07:44;;;;;;;1.83;1.73;;;3.30;90.30;;;;;;5097979;28;20450;-67
2022/03/01 09:10:11;;;;;;;1.20;1.00;;;3.30;90.30;;;;;;5104512;28;20479;-67
2022/03/01 09:12:38;;;;;;;2.17;1.73;;;3.50;89.70;;;;;;5109284;28;20543;-67
2022/03/01 09:15:08;;;;;;;3.30;2.23;;;3.70;88.50;;;;;;5109084;28;20512;-67
2022/03/01 09:17:35;;;;;;;2.47;1.67;;;3.80;87.70;;;;;;5100262;28;20535;-67
2022/03/01 09:20:03;;;;;;;1.67;1.37;;;4.10;87.60;;;;;;5100873;28;21036;-69
2022/03/01 09:22:30;;;;;;;1.50;1.40;;;4.10;88.00;;;;;;5100213;28;20453;-67
2022/03/01 09:24:57;;;;;;;1.30;1.20;;;4.20;86.80;;;;;;5101912;28;20504;-68
2022/03/01 09:27:24;;;;;;;1.40;1.40;;;4.40;86.20;;;;;;5093381;28;21226;-67
2022/03/01 09:29:51;;;;;;;1.20;1.10;;;4.50;84.90;;;;;;5101097;28;20497;-66
2022/03/01 09:32:21;;;;;;;1.30;1.20;;;4.70;85.20;;;;;;5093313;28;20484;-68
2022/03/01 09:34:47;;;;;;;2.50;1.43;;;4.90;85.70;;;;;;5101086;28;20494;-71
2022/03/01 09:37:15;;;;;;;2.90;1.50;;;5.00;84.60;;;;;;5101861;28;21040;-68
2022/03/01 09:39:42;;;;;;;2.80;1.60;;;5.20;84.20;;;;;;5101668;28;20461;-67
2022/03/01 09:42:09;;;;;;;1.80;1.60;;;5.30;83.70;;;;;;5101485;28;20452;-69
2022/03/01 09:44:36;;;;;;;1.33;1.17;;;5.50;83.60;;;;;;5101155;28;20518;-69
2022/03/01 09:47:04;;;;;;;2.20;1.30;;;5.70;82.20;;;;;;5109678;28;20539;-69
2022/03/01 09:49:34;;;;;;;5.27;2.67;;;5.80;82.10;;;;;;5090483;28;20524;-67
2022/03/01 09:52:01;;;;;;;1.53;1.50;;;6.00;82.10;;;;;;5092199;28;20485;-67
2022/03/01 09:54:28;;;;;;;2.10;1.60;;;6.10;82.00;;;;;;5101290;28;20466;-67
2022/03/01 09:56:55;;;;;;;1.30;1.20;;;6.20;81.60;;;;;;5109541;28;20926;-67
2022/03/01 09:59:23;;;;;;;4.03;2.50;;;6.50;80.70;;;;;;5100832;28;20945;-67
2022/03/01 10:01:50;;;;;;;2.43;2.13;;;6.70;79.80;;;;;;5092477;28;20525;-67
2022/03/01 10:04:17;;;;;;;2.43;1.80;;;6.60;79.50;;;;;;5092030;28;20589;-67
2022/03/01 10:06:47;;;;;;;1.70;1.60;;;6.80;80.00;;;;;;5091648;28;20535;-67
2022/03/01 10:09:16;;;;;;;2.23;1.93;;;7.10;78.40;;;;;;5092469;28;20566;-68
2022/03/01 10:11:43;;;;;;;2.10;1.30;;;7.30;78.20;;;;;;5100362;28;20486;-68
2022/03/01 10:14:11;;;;;;;8.80;3.77;;;7.70;76.40;;;;;;5109536;28;20545;-67
2022/03/01 10:16:40;;;;;;;1.57;1.43;;;8.10;75.20;;;;;;5091836;28;20486;-67
2022/03/01 10:19:13;;;;;;;2.43;1.60;;;8.30;74.60;;;;;;5101635;28;20543;-68
2022/03/01 10:21:40;;;;;;;2.40;1.93;;;8.50;72.80;;;;;;5099750;28;20467;-68
2022/03/01 10:24:09;;;;;;;3.20;1.77;;;8.70;73.90;;;;;;5100927;28;20485;-68
2022/03/01 10:26:37;;;;;;;1.50;1.20;;;8.80;72.60;;;;;;5109617;28;20502;-68
2022/03/01 10:29:08;;;;;;;2.43;1.67;;;8.90;72.80;;;;;;5109017;28;20940;-67
2022/03/01 10:31:35;;;;;;;2.40;1.97;;;9.00;70.90;;;;;;5109705;28;20559;-67
2022/03/01 10:34:05;;;;;;;3.37;2.33;;;9.10;70.60;;;;;;5090531;28;21001;-68
2022/03/01 10:36:33;;;;;;;1.40;1.20;;;9.00;72.30;;;;;;5100058;28;20451;-68
2022/03/01 10:39:04;;;;;;;2.43;1.47;;;8.80;71.00;;;;;;5108671;28;20475;-67
2022/03/01 10:41:35;;;;;;;1.47;1.47;;;8.90;72.30;;;;;;5108713;28;20467;-68
2022/03/01 10:44:03;;;;;;;2.60;1.60;;;9.00;69.60;;;;;;5091512;28;20537;-67
2022/03/01 10:46:37;;;;;;;1.87;1.70;;;9.20;71.00;;;;;;5099436;28;20516;-68
2022/03/01 10:49:09;;;;;;;1.80;1.60;;;9.30;70.70;;;;;;5106697;28;20506;-68
2022/03/01 10:51:36;;;;;;;2.13;1.40;;;9.50;69.90;;;;;;5098916;28;21120;-69
2022/03/01 10:54:04;;;;;;;1.73;1.33;;;9.60;69.10;;;;;;5091151;28;20550;-69
2022/03/01 10:56:39;;;;;;;4.67;2.30;;;9.80;67.10;;;;;;5098130;28;22024;-70
2022/03/01 10:59:08;;;;;;;2.80;1.47;;;9.80;67.20;;;;;;5098441;28;20877;-70
2022/03/01 11:01:35;;;;;;;2.93;2.10;;;9.90;66.70;;;;;;5107819;28;20453;-71
2022/03/01 11:04:03;;;;;;;1.87;1.43;;;10.10;66.00;;;;;;5096852;28;20922;-70
2022/03/01 11:06:30;;;;;;;1.40;1.20;;;10.30;67.40;;;;;;5088440;28;20953;-68
2022/03/01 11:09:01;;;;;;;1.63;1.63;;;10.60;66.30;;;;;;5093253;28;20505;-69
2022/03/01 11:11:32;;;;;;;1.63;1.60;;;10.90;66.00;;;;;;5104264;28;20556;-68
2022/03/01 11:14:03;;;;;;;1.80;1.77;;;11.10;63.40;;;;;;5100222;28;20498;-69
2022/03/01 11:16:50;;;;;;;2.27;1.73;;;11.10;63.40;;;;;;5090605;28;20497;-69
2022/03/01 11:19:38;;;;;;;2.70;2.07;;;11.10;64.70;;;;;;5090067;28;20981;-69
2022/03/01 11:22:06;;;;;;;1.30;1.20;;;11.40;64.60;;;;;;5108416;28;20454;-68
2022/03/01 11:24:34;;;;;;;1.53;1.47;;;11.70;64.20;;;;;;5107665;28;20482;-69
2022/03/01 11:27:15;;;;;;;1.90;1.37;;;11.90;65.30;;;;;;5099269;28;20486;-68
2022/03/01 11:29:43;;;;;;;3.00;1.83;;;12.10;62.40;;;;;;5090296;28;20921;-68
2022/03/01 11:32:14;;;;;;;1.73;1.40;;;12.20;61.00;;;;;;5107583;28;20460;-69
2022/03/01 11:34:41;;;;;;;1.80;1.57;;;12.50;60.80;;;;;;5099635;28;20697;-69
2022/03/01 11:37:14;;;;;;;2.87;1.50;;;12.70;60.10;;;;;;5090682;28;20457;-69
2022/03/01 11:39:42;;;;;;;3.00;1.93;;;13.10;61.20;;;;;;5089987;28;20460;-68
2022/03/01 11:42:12;;;;;;;1.57;1.30;;;13.20;58.70;;;;;;5106583;28;20937;-67
2022/03/01 11:44:40;;;;;;;1.60;1.40;;;13.40;60.90;;;;;;5099159;28;20456;-68
2022/03/01 11:47:13;;;;;;;1.40;1.20;;;13.40;59.80;;;;;;5102156;28;20455;-69
2022/03/01 11:49:41;;;;;;;1.30;1.30;;;13.50;59.40;;;;;;5107192;28;20495;-68
2022/03/01 11:52:18;;;;;;;2.17;1.70;;;13.40;59.00;;;;;;5094316;28;20546;-69
2022/03/01 11:54:47;;;;;;;1.80;1.80;;;13.50;56.20;;;;;;5111740;28;20458;-68
2022/03/01 11:57:15;;;;;;;1.60;1.30;;;13.60;58.10;;;;;;5101902;28;20462;-68
2022/03/01 11:59:49;;;;;;;1.63;1.50;;;13.90;56.30;;;;;;5102478;28;20491;-69
2022/03/01 12:02:19;;;;;;;2.60;1.73;;;14.20;58.20;;;;;;5106088;28;20458;-68
2022/03/01 12:04:48;;;;;;;1.90;1.40;;;14.30;58.20;;;;;;5106819;28;20451;-68
2022/03/01 12:07:19;;;;;;;1.57;1.37;;;14.40;56.40;;;;;;5098026;28;20923;-68
2022/03/01 12:09:55;;;;;;;3.13;2.00;;;14.20;56.80;;;;;;5101574;28;20521;-68
2022/03/01 12:12:32;;;;;;;1.50;1.23;;;14.30;57.00;;;;;;5107827;28;20453;-68
2022/03/01 12:14:59;;;;;;;1.77;1.30;;;14.20;56.30;;;;;;5111481;28;20449;-68
2022/03/01 12:17:28;;;;;;;2.47;1.50;;;14.10;57.20;;;;;;5110250;28;20485;-69
2022/03/01 12:20:02;;;;;;;2.03;1.87;;;13.50;55.70;;;;;;5094753;28;21023;-68
2022/03/01 12:22:29;;;;;;;1.57;1.40;;;13.50;57.70;;;;;;5100862;28;20469;-69
2022/03/01 12:24:58;;;;;;;1.63;1.50;;;13.60;58.80;;;;;;5110619;28;20526;-68
2022/03/01 12:27:30;;;;;;;2.87;1.73;;;13.70;58.20;;;;;;5104144;28;20533;-69
2022/03/01 12:30:03;;;;;;;2.23;1.97;;;13.80;56.50;;;;;;5110074;28;20488;-68
2022/03/01 12:32:35;;;;;;;1.80;1.43;;;13.60;55.80;;;;;;5094538;28;20505;-68
2022/03/01 12:35:02;;;;;;;1.57;1.50;;;13.90;55.50;;;;;;5102663;28;20799;-70
2022/03/01 12:37:30;;;;;;;2.40;1.77;;;14.00;55.70;;;;;;5094333;28;20459;-69
2022/03/01 12:39:57;;;;;;;1.60;1.57;;;13.90;55.20;;;;;;5111540;28;20457;-69
2022/03/01 12:42:27;;;;;;;2.33;1.47;;;14.00;55.60;;;;;;5094982;28;20819;-69
2022/03/01 12:44:55;;;;;;;3.67;2.57;;;14.10;55.40;;;;;;5102469;28;20538;-68
2022/03/01 12:47:22;;;;;;;1.57;1.57;;;13.80;55.50;;;;;;5102082;28;20461;-68
2022/03/01 12:49:51;;;;;;;1.80;1.40;;;13.20;56.00;;;;;;5105326;28;20544;-68
2022/03/01 12:52:20;;;;;;;1.50;1.50;;;13.00;56.00;;;;;;5102508;28;20507;-69
2022/03/01 12:54:48;;;;;;;1.80;1.50;;;13.00;56.10;;;;;;5110440;28;20447;-69
2022/03/01 12:57:16;;;;;;;2.13;1.53;;;13.10;55.70;;;;;;5101750;28;20549;-69
2022/03/01 12:59:44;;;;;;;2.70;1.80;;;13.20;55.60;;;;;;5110868;28;20885;-69